Airfield :
LOGIN :

Register | Disclaimer

   EN    FR    IT 

 










Legend :    VFR   Marginal VFR   IFR   Intensive IFR   Very Intensive IFR
Visi :
Ceiling :
>= 8 km
>= 3000ft
5 to 8 km
1000 to 3000 ft
1500m to 5 km
500 to 1000 ft
800 to 1500m
200 to 500 ft
< 800m
< 200 ft
Symbols :   Thunderstorms  Fog  Heavy snow  Heavy precipitations  Wind > 20 kt
SIGMETs :     Misc.  Thunderstorms  Icing  Turbulence  Mountain Waves  Volcanic Ashes






- Airport Elevation : 47 ft
- IATA code : BDS


LIBR - Casale Arpt. Brindisi

CURRENT METAR :
  • 230720Z 34013KT CAVOK 30/25 Q1010

EXPIRED METARs :
  • 230650Z 33014KT CAVOK 29/25 Q1010
  • 230620Z 34016KT CAVOK 29/24 Q1010
  • 230550Z 34015KT CAVOK 29/24 Q1010
  • 230520Z 34015KT CAVOK 28/24 Q1010
  • 230450Z 34015KT CAVOK 28/24 Q1009
  • 230420Z 35016KT CAVOK 28/24 Q1009
  • 230350Z 35015KT CAVOK 28/24 Q1009
  • 230320Z 34014KT 310V010 CAVOK 28/24 Q1009
  • 230250Z 33015KT CAVOK 27/23 Q1009

TAF TAF LIBR
Valid from the 23 at 06:00 until the 24 at 06:00 UTC


230500Z 2306/2406 35015G25KT 9999 SCT040



MET'MAP, your aeronautical weather chart ! - Copyright ORBIFLY December 2007 - Disclaimer

ORBIFLY MET'MAP TEAM :

Programming & Development : Alexandra Zaïnal
Original concept : Baudouin d'Aumeries
Technical & hardware support : Manuel Goepfert
Assistance : Marc-Olivier Méhu




SOURCES & CREDITS :

   NOAA